sensor_id;sensor_type;location;lat;lon;timestamp;pressure;altitude;pressure_sealevel;temperature
31528;BMP280;10206;48.012;10.030;2023-03-16T00:00:39;95046.84;;;3.03
31528;BMP280;10206;48.012;10.030;2023-03-16T00:03:08;95042.91;;;3.04
31528;BMP280;10206;48.012;10.030;2023-03-16T00:05:34;95046.53;;;3.12
31528;BMP280;10206;48.012;10.030;2023-03-16T00:08:01;95039.72;;;3.05
31528;BMP280;10206;48.012;10.030;2023-03-16T00:10:27;95035.44;;;2.91
31528;BMP280;10206;48.012;10.030;2023-03-16T00:12:54;95033.50;;;2.92
31528;BMP280;10206;48.012;10.030;2023-03-16T00:15:21;95033.41;;;2.97
31528;BMP280;10206;48.012;10.030;2023-03-16T00:17:47;95029.53;;;2.93
31528;BMP280;10206;48.012;10.030;2023-03-16T00:20:15;95028.97;;;2.75
31528;BMP280;10206;48.012;10.030;2023-03-16T00:22:41;95027.63;;;2.88
31528;BMP280;10206;48.012;10.030;2023-03-16T00:25:09;95024.50;;;2.84
31528;BMP280;10206;48.012;10.030;2023-03-16T00:27:35;95027.19;;;2.84
31528;BMP280;10206;48.012;10.030;2023-03-16T00:30:01;95026.56;;;2.96
31528;BMP280;10206;48.012;10.030;2023-03-16T00:32:31;95026.41;;;2.89
31528;BMP280;10206;48.012;10.030;2023-03-16T00:34:58;95030.22;;;2.99
31528;BMP280;10206;48.012;10.030;2023-03-16T00:37:25;95033.09;;;3.06
31528;BMP280;10206;48.012;10.030;2023-03-16T00:39:52;95026.84;;;2.93
31528;BMP280;10206;48.012;10.030;2023-03-16T00:42:23;95027.88;;;2.90
31528;BMP280;10206;48.012;10.030;2023-03-16T00:44:56;95039.03;;;2.99
31528;BMP280;10206;48.012;10.030;2023-03-16T00:47:24;95024.72;;;2.61
31528;BMP280;10206;48.012;10.030;2023-03-16T00:49:51;95025.72;;;2.53
31528;BMP280;10206;48.012;10.030;2023-03-16T00:52:17;95028.06;;;2.67
31528;BMP280;10206;48.012;10.030;2023-03-16T00:54:45;95028.06;;;2.67
31528;BMP280;10206;48.012;10.030;2023-03-16T00:57:14;95017.31;;;2.92
31528;BMP280;10206;48.012;10.030;2023-03-16T00:59:42;95022.16;;;2.69
31528;BMP280;10206;48.012;10.030;2023-03-16T01:02:09;95026.66;;;2.61
31528;BMP280;10206;48.012;10.030;2023-03-16T01:04:36;95019.00;;;2.65
31528;BMP280;10206;48.012;10.030;2023-03-16T01:07:03;95020.81;;;2.57
31528;BMP280;10206;48.012;10.030;2023-03-16T01:09:30;95018.47;;;2.42
31528;BMP280;10206;48.012;10.030;2023-03-16T01:11:56;95015.91;;;2.55
31528;BMP280;10206;48.012;10.030;2023-03-16T01:14:22;95018.03;;;2.62
31528;BMP280;10206;48.012;10.030;2023-03-16T01:16:49;95012.34;;;2.42
31528;BMP280;10206;48.012;10.030;2023-03-16T01:19:15;95010.88;;;2.41
31528;BMP280;10206;48.012;10.030;2023-03-16T01:21:41;95014.00;;;2.50
31528;BMP280;10206;48.012;10.030;2023-03-16T01:24:08;95015.47;;;2.51
31528;BMP280;10206;48.012;10.030;2023-03-16T01:26:34;95007.16;;;2.49
31528;BMP280;10206;48.012;10.030;2023-03-16T01:29:01;95009.41;;;2.45
31528;BMP280;10206;48.012;10.030;2023-03-16T01:31:27;95004.25;;;2.47
31528;BMP280;10206;48.012;10.030;2023-03-16T01:33:54;94999.91;;;2.39
31528;BMP280;10206;48.012;10.030;2023-03-16T01:36:20;95002.69;;;2.28
31528;BMP280;10206;48.012;10.030;2023-03-16T01:38:46;95004.84;;;2.29
31528;BMP280;10206;48.012;10.030;2023-03-16T01:41:13;95004.09;;;2.34
31528;BMP280;10206;48.012;10.030;2023-03-16T01:43:40;95001.94;;;2.27
31528;BMP280;10206;48.012;10.030;2023-03-16T01:46:13;95001.47;;;2.23
31528;BMP280;10206;48.012;10.030;2023-03-16T01:49:13;94994.22;;;2.12
31528;BMP280;10206;48.012;10.030;2023-03-16T01:51:47;94988.56;;;2.16
31528;BMP280;10206;48.012;10.030;2023-03-16T01:54:36;94988.56;;;2.16
31528;BMP280;10206;48.012;10.030;2023-03-16T01:57:27;94992.44;;;2.21
31528;BMP280;10206;48.012;10.030;2023-03-16T02:02:57;94983.03;;;2.33
31528;BMP280;10206;48.012;10.030;2023-03-16T02:05:43;94988.75;;;2.24
31528;BMP280;10206;48.012;10.030;2023-03-16T02:08:11;94988.28;;;2.25
31528;BMP280;10206;48.012;10.030;2023-03-16T02:10:38;94988.94;;;2.31
31528;BMP280;10206;48.012;10.030;2023-03-16T02:13:05;94986.19;;;2.37
31528;BMP280;10206;48.012;10.030;2023-03-16T02:15:31;94985.81;;;2.27
31528;BMP280;10206;48.012;10.030;2023-03-16T02:17:58;94986.97;;;2.32
31528;BMP280;10206;48.012;10.030;2023-03-16T02:23:09;94981.09;;;2.33
31528;BMP280;10206;48.012;10.030;2023-03-16T02:28:30;94976.22;;;2.32
31528;BMP280;10206;48.012;10.030;2023-03-16T02:30:57;94969.91;;;2.24
31528;BMP280;10206;48.012;10.030;2023-03-16T02:33:24;94967.06;;;2.16
31528;BMP280;10206;48.012;10.030;2023-03-16T02:35:50;94973.34;;;2.24
31528;BMP280;10206;48.012;10.030;2023-03-16T02:38:17;94968.28;;;2.15
31528;BMP280;10206;48.012;10.030;2023-03-16T02:40:43;94967.59;;;2.09
31528;BMP280;10206;48.012;10.030;2023-03-16T02:43:21;94972.03;;;2.01
31528;BMP280;10206;48.012;10.030;2023-03-16T02:45:56;94962.25;;;1.98
31528;BMP280;10206;48.012;10.030;2023-03-16T02:48:31;94964.81;;;1.85
31528;BMP280;10206;48.012;10.030;2023-03-16T02:51:00;94968.91;;;1.91
31528;BMP280;10206;48.012;10.030;2023-03-16T02:53:26;94968.91;;;1.91
31528;BMP280;10206;48.012;10.030;2023-03-16T02:55:52;94973.53;;;1.91
31528;BMP280;10206;48.012;10.030;2023-03-16T02:58:19;94979.50;;;1.84
31528;BMP280;10206;48.012;10.030;2023-03-16T03:00:45;94971.84;;;1.88
31528;BMP280;10206;48.012;10.030;2023-03-16T03:03:11;94974.13;;;1.78
31528;BMP280;10206;48.012;10.030;2023-03-16T03:05:39;94972.50;;;1.58
31528;BMP280;10206;48.012;10.030;2023-03-16T03:08:05;94972.97;;;1.62
31528;BMP280;10206;48.012;10.030;2023-03-16T03:10:31;94971.25;;;1.71
31528;BMP280;10206;48.012;10.030;2023-03-16T03:12:58;94974.66;;;1.71
31528;BMP280;10206;48.012;10.030;2023-03-16T03:15:24;94959.72;;;1.76
31528;BMP280;10206;48.012;10.030;2023-03-16T03:17:50;94958.78;;;1.68
31528;BMP280;10206;48.012;10.030;2023-03-16T03:20:16;94951.00;;;1.64
31528;BMP280;10206;48.012;10.030;2023-03-16T03:22:45;94951.22;;;1.66
31528;BMP280;10206;48.012;10.030;2023-03-16T03:25:14;94957.81;;;1.65
31528;BMP280;10206;48.012;10.030;2023-03-16T03:27:41;94959.25;;;1.72
31528;BMP280;10206;48.012;10.030;2023-03-16T03:30:18;94953.66;;;1.70
31528;BMP280;10206;48.012;10.030;2023-03-16T03:32:44;94954.94;;;1.57
31528;BMP280;10206;48.012;10.030;2023-03-16T03:35:12;94954.94;;;1.57
31528;BMP280;10206;48.012;10.030;2023-03-16T03:37:40;94961.31;;;1.49
31528;BMP280;10206;48.012;10.030;2023-03-16T03:40:10;94956.28;;;1.29
31528;BMP280;10206;48.012;10.030;2023-03-16T03:42:38;94954.28;;;1.35
31528;BMP280;10206;48.012;10.030;2023-03-16T03:45:04;94954.28;;;1.35
31528;BMP280;10206;48.012;10.030;2023-03-16T03:47:31;94955.47;;;1.39
31528;BMP280;10206;48.012;10.030;2023-03-16T03:49:57;94957.44;;;1.33
31528;BMP280;10206;48.012;10.030;2023-03-16T03:52:23;94966.81;;;1.21
31528;BMP280;10206;48.012;10.030;2023-03-16T03:54:49;94957.25;;;1.31
31528;BMP280;10206;48.012;10.030;2023-03-16T03:57:16;94959.63;;;1.40
31528;BMP280;10206;48.012;10.030;2023-03-16T03:59:42;94957.72;;;1.35
31528;BMP280;10206;48.012;10.030;2023-03-16T04:02:09;94953.34;;;1.32
31528;BMP280;10206;48.012;10.030;2023-03-16T04:04:36;94951.59;;;1.35
31528;BMP280;10206;48.012;10.030;2023-03-16T04:07:02;94944.72;;;1.39
31528;BMP280;10206;48.012;10.030;2023-03-16T04:09:29;94951.56;;;1.40
31528;BMP280;10206;48.012;10.030;2023-03-16T04:11:59;94942.53;;;1.38
31528;BMP280;10206;48.012;10.030;2023-03-16T04:14:26;94941.06;;;1.37
31528;BMP280;10206;48.012;10.030;2023-03-16T04:16:52;94944.06;;;1.28
31528;BMP280;10206;48.012;10.030;2023-03-16T04:19:20;94940.63;;;1.33
31528;BMP280;10206;48.012;10.030;2023-03-16T04:21:46;94936.16;;;1.46
31528;BMP280;10206;48.012;10.030;2023-03-16T04:24:12;94929.06;;;1.49
31528;BMP280;10206;48.012;10.030;2023-03-16T04:26:40;94929.34;;;1.40
31528;BMP280;10206;48.012;10.030;2023-03-16T04:29:07;94929.38;;;1.34
31528;BMP280;10206;48.012;10.030;2023-03-16T04:31:33;94934.00;;;1.34
31528;BMP280;10206;48.012;10.030;2023-03-16T04:33:59;94926.91;;;1.36
31528;BMP280;10206;48.012;10.030;2023-03-16T04:36:27;94927.28;;;1.16
31528;BMP280;10206;48.012;10.030;2023-03-16T04:38:53;94921.16;;;1.16
31528;BMP280;10206;48.012;10.030;2023-03-16T04:41:19;94916.97;;;1.20
31528;BMP280;10206;48.012;10.030;2023-03-16T04:43:45;94918.16;;;1.30
31528;BMP280;10206;48.012;10.030;2023-03-16T04:46:12;94921.13;;;1.32
31528;BMP280;10206;48.012;10.030;2023-03-16T04:48:38;94915.25;;;1.28
31528;BMP280;10206;48.012;10.030;2023-03-16T04:51:04;94913.47;;;1.36
31528;BMP280;10206;48.012;10.030;2023-03-16T04:53:31;94916.66;;;1.35
31528;BMP280;10206;48.012;10.030;2023-03-16T04:56:00;94912.81;;;1.25
31528;BMP280;10206;48.012;10.030;2023-03-16T04:58:27;94920.53;;;1.45
31528;BMP280;10206;48.012;10.030;2023-03-16T05:00:53;94918.19;;;1.25
31528;BMP280;10206;48.012;10.030;2023-03-16T05:03:22;94912.81;;;1.30
31528;BMP280;10206;48.012;10.030;2023-03-16T05:05:49;94910.13;;;1.25
31528;BMP280;10206;48.012;10.030;2023-03-16T05:08:15;94901.91;;;1.06
31528;BMP280;10206;48.012;10.030;2023-03-16T05:10:42;94898.75;;;1.02
31528;BMP280;10206;48.012;10.030;2023-03-16T05:13:09;94896.75;;;1.19
31528;BMP280;10206;48.012;10.030;2023-03-16T05:15:35;94891.09;;;1.28
31528;BMP280;10206;48.012;10.030;2023-03-16T05:18:01;94898.91;;;1.21
31528;BMP280;10206;48.012;10.030;2023-03-16T05:20:28;94896.47;;;1.28
31528;BMP280;10206;48.012;10.030;2023-03-16T05:22:54;94905.03;;;1.21
31528;BMP280;10206;48.012;10.030;2023-03-16T05:25:20;94897.44;;;1.25
31528;BMP280;10206;48.012;10.030;2023-03-16T05:27:49;94899.06;;;1.34
31528;BMP280;10206;48.012;10.030;2023-03-16T05:30:16;94904.44;;;1.34
31528;BMP280;10206;48.012;10.030;2023-03-16T05:32:44;94900.78;;;1.37
31528;BMP280;10206;48.012;10.030;2023-03-16T05:35:11;94896.69;;;1.30
31528;BMP280;10206;48.012;10.030;2023-03-16T05:37:42;94892.25;;;1.33
31528;BMP280;10206;48.012;10.030;2023-03-16T05:40:11;94900.66;;;1.18
31528;BMP280;10206;48.012;10.030;2023-03-16T05:42:43;94901.38;;;1.19
31528;BMP280;10206;48.012;10.030;2023-03-16T05:45:10;94902.06;;;1.30
31528;BMP280;10206;48.012;10.030;2023-03-16T05:47:36;94909.19;;;1.22
31528;BMP280;10206;48.012;10.030;2023-03-16T05:50:06;94906.66;;;1.35
31528;BMP280;10206;48.012;10.030;2023-03-16T05:52:34;94904.19;;;1.37
31528;BMP280;10206;48.012;10.030;2023-03-16T05:55:01;94908.59;;;1.35
31528;BMP280;10206;48.012;10.030;2023-03-16T05:57:27;94906.84;;;1.43
31528;BMP280;10206;48.012;10.030;2023-03-16T05:59:53;94901.75;;;1.39
31528;BMP280;10206;48.012;10.030;2023-03-16T06:02:20;94896.53;;;1.58
31528;BMP280;10206;48.012;10.030;2023-03-16T06:04:46;94897.06;;;1.51
31528;BMP280;10206;48.012;10.030;2023-03-16T06:07:12;94894.28;;;1.68
31528;BMP280;10206;48.012;10.030;2023-03-16T06:09:38;94901.03;;;1.39
31528;BMP280;10206;48.012;10.030;2023-03-16T06:12:04;94897.94;;;1.70
31528;BMP280;10206;48.012;10.030;2023-03-16T06:14:30;94906.91;;;1.84
31528;BMP280;10206;48.012;10.030;2023-03-16T06:16:56;94907.13;;;2.15
31528;BMP280;10206;48.012;10.030;2023-03-16T06:19:22;94923.75;;;2.44
31528;BMP280;10206;48.012;10.030;2023-03-16T06:21:48;94904.06;;;2.79
31528;BMP280;10206;48.012;10.030;2023-03-16T06:24:14;94915.41;;;2.96
31528;BMP280;10206;48.012;10.030;2023-03-16T06:26:40;94910.84;;;3.28
31528;BMP280;10206;48.012;10.030;2023-03-16T06:29:06;94908.22;;;3.60
31528;BMP280;10206;48.012;10.030;2023-03-16T06:31:32;94913.88;;;3.75
31528;BMP280;10206;48.012;10.030;2023-03-16T06:33:59;94906.13;;;4.03
31528;BMP280;10206;48.012;10.030;2023-03-16T06:36:25;94908.56;;;4.33
31528;BMP280;10206;48.012;10.030;2023-03-16T06:38:52;94908.22;;;4.68
31528;BMP280;10206;48.012;10.030;2023-03-16T06:41:18;94916.50;;;4.96
31528;BMP280;10206;48.012;10.030;2023-03-16T06:43:44;94903.44;;;5.34
31528;BMP280;10206;48.012;10.030;2023-03-16T06:46:10;94901.38;;;5.61
31528;BMP280;10206;48.012;10.030;2023-03-16T06:48:36;94901.25;;;5.87
31528;BMP280;10206;48.012;10.030;2023-03-16T06:51:03;94903.28;;;5.53
31528;BMP280;10206;48.012;10.030;2023-03-16T06:53:29;94907.59;;;5.90
31528;BMP280;10206;48.012;10.030;2023-03-16T06:55:55;94907.63;;;5.22
31528;BMP280;10206;48.012;10.030;2023-03-16T06:58:21;94904.38;;;5.24
31528;BMP280;10206;48.012;10.030;2023-03-16T07:00:47;94910.66;;;4.92
31528;BMP280;10206;48.012;10.030;2023-03-16T07:03:13;94902.13;;;5.01
31528;BMP280;10206;48.012;10.030;2023-03-16T07:05:40;94913.03;;;5.09
31528;BMP280;10206;48.012;10.030;2023-03-16T07:08:06;94913.88;;;4.91
31528;BMP280;10206;48.012;10.030;2023-03-16T07:10:32;94910.16;;;5.54
31528;BMP280;10206;48.012;10.030;2023-03-16T07:12:59;94903.63;;;5.36
31528;BMP280;10206;48.012;10.030;2023-03-16T07:15:25;94910.91;;;5.96
31528;BMP280;10206;48.012;10.030;2023-03-16T07:17:52;94912.88;;;5.95
31528;BMP280;10206;48.012;10.030;2023-03-16T07:20:18;94905.50;;;6.45
31528;BMP280;10206;48.012;10.030;2023-03-16T07:22:44;94907.69;;;6.74
31528;BMP280;10206;48.012;10.030;2023-03-16T07:25:11;94905.28;;;6.63
31528;BMP280;10206;48.012;10.030;2023-03-16T07:27:38;94910.00;;;6.70
31528;BMP280;10206;48.012;10.030;2023-03-16T07:30:07;94911.94;;;6.62
31528;BMP280;10206;48.012;10.030;2023-03-16T07:32:33;94910.66;;;6.91
31528;BMP280;10206;48.012;10.030;2023-03-16T07:34:59;94913.84;;;7.18
31528;BMP280;10206;48.012;10.030;2023-03-16T07:37:26;94918.38;;;7.23
31528;BMP280;10206;48.012;10.030;2023-03-16T07:39:52;94918.47;;;7.38
31528;BMP280;10206;48.012;10.030;2023-03-16T07:42:18;94907.66;;;7.69
31528;BMP280;10206;48.012;10.030;2023-03-16T07:44:44;94912.38;;;7.98
31528;BMP280;10206;48.012;10.030;2023-03-16T07:47:11;94913.84;;;7.92
31528;BMP280;10206;48.012;10.030;2023-03-16T07:49:38;94918.38;;;8.12
31528;BMP280;10206;48.012;10.030;2023-03-16T07:52:06;94921.63;;;8.03
31528;BMP280;10206;48.012;10.030;2023-03-16T07:54:32;94914.53;;;7.70
31528;BMP280;10206;48.012;10.030;2023-03-16T07:56:58;94923.31;;;7.40
31528;BMP280;10206;48.012;10.030;2023-03-16T07:59:24;94913.25;;;7.78
31528;BMP280;10206;48.012;10.030;2023-03-16T08:01:50;94920.91;;;7.87
31528;BMP280;10206;48.012;10.030;2023-03-16T08:04:16;94925.22;;;8.43
31528;BMP280;10206;48.012;10.030;2023-03-16T08:06:43;94916.31;;;8.73
31528;BMP280;10206;48.012;10.030;2023-03-16T08:09:09;94918.88;;;9.18
31528;BMP280;10206;48.012;10.030;2023-03-16T08:11:35;94924.97;;;8.86
31528;BMP280;10206;48.012;10.030;2023-03-16T08:14:01;94923.03;;;9.19
31528;BMP280;10206;48.012;10.030;2023-03-16T08:16:27;94924.19;;;9.01
31528;BMP280;10206;48.012;10.030;2023-03-16T08:18:56;94920.19;;;9.10
31528;BMP280;10206;48.012;10.030;2023-03-16T08:21:22;94924.25;;;8.78
31528;BMP280;10206;48.012;10.030;2023-03-16T08:23:48;94915.94;;;9.24
31528;BMP280;10206;48.012;10.030;2023-03-16T08:26:22;94928.75;;;9.71
31528;BMP280;10206;48.012;10.030;2023-03-16T08:28:50;94934.00;;;9.76
31528;BMP280;10206;48.012;10.030;2023-03-16T08:31:20;94928.69;;;9.78
31528;BMP280;10206;48.012;10.030;2023-03-16T08:33:47;94932.25;;;9.64
31528;BMP280;10206;48.012;10.030;2023-03-16T08:36:15;94930.31;;;9.81
31528;BMP280;10206;48.012;10.030;2023-03-16T08:38:42;94927.03;;;9.83
31528;BMP280;10206;48.012;10.030;2023-03-16T08:41:09;94918.25;;;9.67
31528;BMP280;10206;48.012;10.030;2023-03-16T08:43:37;94918.75;;;9.98
31528;BMP280;10206;48.012;10.030;2023-03-16T08:46:03;94926.34;;;9.75
31528;BMP280;10206;48.012;10.030;2023-03-16T08:48:31;94916.69;;;9.81
31528;BMP280;10206;48.012;10.030;2023-03-16T08:51:02;94918.53;;;10.45
31528;BMP280;10206;48.012;10.030;2023-03-16T08:53:28;94914.50;;;10.46
31528;BMP280;10206;48.012;10.030;2023-03-16T08:56:06;94922.16;;;10.65
31528;BMP280;10206;48.012;10.030;2023-03-16T08:58:33;94919.94;;;10.46
31528;BMP280;10206;48.012;10.030;2023-03-16T09:01:00;94924.41;;;10.76
31528;BMP280;10206;48.012;10.030;2023-03-16T09:03:27;94914.94;;;10.77
31528;BMP280;10206;48.012;10.030;2023-03-16T09:05:59;94919.41;;;11.16
31528;BMP280;10206;48.012;10.030;2023-03-16T09:08:25;94914.88;;;10.94
31528;BMP280;10206;48.012;10.030;2023-03-16T09:10:59;94917.63;;;10.94
31528;BMP280;10206;48.012;10.030;2023-03-16T09:13:25;94919.06;;;10.95
31528;BMP280;10206;48.012;10.030;2023-03-16T09:15:51;94922.81;;;11.17
31528;BMP280;10206;48.012;10.030;2023-03-16T09:18:17;94917.72;;;10.86
31528;BMP280;10206;48.012;10.030;2023-03-16T09:20:44;94919.97;;;10.97
31528;BMP280;10206;48.012;10.030;2023-03-16T09:23:13;94915.97;;;10.98
31528;BMP280;10206;48.012;10.030;2023-03-16T09:25:39;94907.34;;;11.02
31528;BMP280;10206;48.012;10.030;2023-03-16T09:28:06;94907.94;;;10.66
31528;BMP280;10206;48.012;10.030;2023-03-16T09:30:32;94920.03;;;11.07
31528;BMP280;10206;48.012;10.030;2023-03-16T09:32:59;94914.78;;;11.19
31528;BMP280;10206;48.012;10.030;2023-03-16T09:35:25;94921.22;;;11.40
31528;BMP280;10206;48.012;10.030;2023-03-16T09:37:51;94917.22;;;11.41
31528;BMP280;10206;48.012;10.030;2023-03-16T09:40:24;94915.91;;;11.42
31528;BMP280;10206;48.012;10.030;2023-03-16T09:48:27;94919.63;;;11.64
31528;BMP280;10206;48.012;10.030;2023-03-16T09:50:59;94914.69;;;11.80
31528;BMP280;10206;48.012;10.030;2023-03-16T09:53:39;94909.38;;;11.45
31528;BMP280;10206;48.012;10.030;2023-03-16T09:56:28;94902.63;;;11.92
31528;BMP280;10206;48.012;10.030;2023-03-16T09:58:58;94890.00;;;11.97
31528;BMP280;10206;48.012;10.030;2023-03-16T10:01:45;94890.19;;;12.18
31528;BMP280;10206;48.012;10.030;2023-03-16T10:06:58;94889.34;;;12.25
31528;BMP280;10206;48.012;10.030;2023-03-16T10:09:47;94879.97;;;12.37
31528;BMP280;10206;48.012;10.030;2023-03-16T10:12:18;94874.84;;;11.86
31528;BMP280;10206;48.012;10.030;2023-03-16T10:14:48;94872.78;;;12.61
31528;BMP280;10206;48.012;10.030;2023-03-16T10:17:37;94872.34;;;12.74
31528;BMP280;10206;48.012;10.030;2023-03-16T10:20:06;94861.38;;;12.93
31528;BMP280;10206;48.012;10.030;2023-03-16T10:22:37;94864.34;;;13.07
31528;BMP280;10206;48.012;10.030;2023-03-16T10:27:36;94845.28;;;12.49
31528;BMP280;10206;48.012;10.030;2023-03-16T10:30:24;94840.66;;;13.31
31528;BMP280;10206;48.012;10.030;2023-03-16T10:32:51;94843.19;;;13.48
31528;BMP280;10206;48.012;10.030;2023-03-16T10:38:02;94839.13;;;13.49
31528;BMP280;10206;48.012;10.030;2023-03-16T10:40:35;94839.78;;;14.11
31528;BMP280;10206;48.012;10.030;2023-03-16T10:43:11;94835.94;;;14.04
31528;BMP280;10206;48.012;10.030;2023-03-16T10:45:38;94837.75;;;13.90
31528;BMP280;10206;48.012;10.030;2023-03-16T10:48:16;94839.06;;;13.89
31528;BMP280;10206;48.012;10.030;2023-03-16T10:50:53;94837.56;;;14.19
31528;BMP280;10206;48.012;10.030;2023-03-16T10:53:24;94838.16;;;13.96
31528;BMP280;10206;48.012;10.030;2023-03-16T10:55:56;94832.78;;;14.19
31528;BMP280;10206;48.012;10.030;2023-03-16T10:58:30;94829.53;;;14.11
31528;BMP280;10206;48.012;10.030;2023-03-16T11:00:57;94825.59;;;14.14
31528;BMP280;10206;48.012;10.030;2023-03-16T11:03:27;94823.34;;;14.43
31528;BMP280;10206;48.012;10.030;2023-03-16T11:06:02;94812.06;;;13.34
31528;BMP280;10206;48.012;10.030;2023-03-16T11:08:33;94813.03;;;13.99
31528;BMP280;10206;48.012;10.030;2023-03-16T11:11:07;94809.81;;;13.61
31528;BMP280;10206;48.012;10.030;2023-03-16T11:13:37;94808.13;;;13.77
31528;BMP280;10206;48.012;10.030;2023-03-16T11:16:29;94812.16;;;13.55
31528;BMP280;10206;48.012;10.030;2023-03-16T11:22:21;94829.38;;;14.63
31528;BMP280;10206;48.012;10.030;2023-03-16T11:24:49;94824.91;;;14.46
31528;BMP280;10206;48.012;10.030;2023-03-16T11:27:50;94815.31;;;14.68
31528;BMP280;10206;48.012;10.030;2023-03-16T11:30:29;94828.81;;;15.32
31528;BMP280;10206;48.012;10.030;2023-03-16T11:32:59;94814.69;;;14.58
31528;BMP280;10206;48.012;10.030;2023-03-16T11:36:09;94815.63;;;14.51
31528;BMP280;10206;48.012;10.030;2023-03-16T11:39:09;94815.63;;;14.51
31528;BMP280;10206;48.012;10.030;2023-03-16T11:47:01;94824.97;;;15.60
31528;BMP280;10206;48.012;10.030;2023-03-16T11:55:09;94827.19;;;15.29
31528;BMP280;10206;48.012;10.030;2023-03-16T12:00:46;94819.34;;;15.35
31528;BMP280;10206;48.012;10.030;2023-03-16T12:14:17;94786.31;;;15.58
31528;BMP280;10206;48.012;10.030;2023-03-16T12:17:04;94793.63;;;14.96
31528;BMP280;10206;48.012;10.030;2023-03-16T12:19:38;94792.91;;;15.07
31528;BMP280;10206;48.012;10.030;2023-03-16T12:22:18;94790.50;;;15.59
31528;BMP280;10206;48.012;10.030;2023-03-16T12:24:46;94791.97;;;15.14
31528;BMP280;10206;48.012;10.030;2023-03-16T12:27:31;94783.94;;;15.64
31528;BMP280;10206;48.012;10.030;2023-03-16T12:38:24;94778.94;;;16.22
31528;BMP280;10206;48.012;10.030;2023-03-16T12:41:07;94778.06;;;16.56
31528;BMP280;10206;48.012;10.030;2023-03-16T12:44:08;94778.16;;;15.83
31528;BMP280;10206;48.012;10.030;2023-03-16T12:49:10;94765.81;;;15.84
31528;BMP280;10206;48.012;10.030;2023-03-16T12:51:42;94765.66;;;16.69
31528;BMP280;10206;48.012;10.030;2023-03-16T12:54:50;94758.25;;;16.46
31528;BMP280;10206;48.012;10.030;2023-03-16T12:57:17;94765.75;;;16.32
31528;BMP280;10206;48.012;10.030;2023-03-16T12:59:46;94764.78;;;16.03
31528;BMP280;10206;48.012;10.030;2023-03-16T13:02:27;94760.91;;;16.19
31528;BMP280;10206;48.012;10.030;2023-03-16T13:05:15;94752.75;;;15.96
31528;BMP280;10206;48.012;10.030;2023-03-16T13:07:47;94759.75;;;15.74
31528;BMP280;10206;48.012;10.030;2023-03-16T13:10:15;94746.53;;;15.96
31528;BMP280;10206;48.012;10.030;2023-03-16T13:12:42;94753.00;;;15.40
31528;BMP280;10206;48.012;10.030;2023-03-16T13:15:26;94740.91;;;15.57
31528;BMP280;10206;48.012;10.030;2023-03-16T13:20:49;94742.06;;;15.06
31528;BMP280;10206;48.012;10.030;2023-03-16T13:25:57;94733.09;;;15.05
31528;BMP280;10206;48.012;10.030;2023-03-16T13:28:28;94736.59;;;14.50
31528;BMP280;10206;48.012;10.030;2023-03-16T13:30:56;94730.22;;;15.15
31528;BMP280;10206;48.012;10.030;2023-03-16T13:33:34;94723.41;;;15.27
31528;BMP280;10206;48.012;10.030;2023-03-16T13:36:04;94730.16;;;14.45
31528;BMP280;10206;48.012;10.030;2023-03-16T13:38:31;94728.53;;;14.63
31528;BMP280;10206;48.012;10.030;2023-03-16T13:41:08;94723.28;;;15.14
31528;BMP280;10206;48.012;10.030;2023-03-16T13:43:40;94717.91;;;14.81
31528;BMP280;10206;48.012;10.030;2023-03-16T13:46:14;94714.66;;;14.50
31528;BMP280;10206;48.012;10.030;2023-03-16T13:48:41;94723.25;;;14.44
31528;BMP280;10206;48.012;10.030;2023-03-16T13:51:13;94708.09;;;14.66
31528;BMP280;10206;48.012;10.030;2023-03-16T13:53:42;94711.22;;;14.84
31528;BMP280;10206;48.012;10.030;2023-03-16T13:56:13;94709.09;;;15.06
31528;BMP280;10206;48.012;10.030;2023-03-16T13:58:44;94709.69;;;14.93
31528;BMP280;10206;48.012;10.030;2023-03-16T14:01:26;94716.63;;;15.05
31528;BMP280;10206;48.012;10.030;2023-03-16T14:03:57;94722.56;;;15.02
31528;BMP280;10206;48.012;10.030;2023-03-16T14:06:26;94715.75;;;14.91
31528;BMP280;10206;48.012;10.030;2023-03-16T14:08:58;94715.38;;;14.50
31528;BMP280;10206;48.012;10.030;2023-03-16T14:11:26;94721.13;;;14.77
31528;BMP280;10206;48.012;10.030;2023-03-16T14:13:57;94721.38;;;14.70
31528;BMP280;10206;48.012;10.030;2023-03-16T14:16:26;94707.16;;;14.97
31528;BMP280;10206;48.012;10.030;2023-03-16T14:19:07;94707.94;;;14.30
31528;BMP280;10206;48.012;10.030;2023-03-16T14:21:43;94701.03;;;14.40
31528;BMP280;10206;48.012;10.030;2023-03-16T14:24:34;94712.16;;;14.88
31528;BMP280;10206;48.012;10.030;2023-03-16T14:27:16;94708.75;;;15.00
31528;BMP280;10206;48.012;10.030;2023-03-16T14:29:43;94712.44;;;14.25
31528;BMP280;10206;48.012;10.030;2023-03-16T14:32:39;94701.84;;;14.43
31528;BMP280;10206;48.012;10.030;2023-03-16T14:35:18;94712.50;;;14.04
31528;BMP280;10206;48.012;10.030;2023-03-16T14:37:45;94710.13;;;14.54
31528;BMP280;10206;48.012;10.030;2023-03-16T14:40:29;94708.03;;;14.99
31528;BMP280;10206;48.012;10.030;2023-03-16T14:43:00;94708.94;;;14.80
31528;BMP280;10206;48.012;10.030;2023-03-16T14:45:35;94708.44;;;14.38
31528;BMP280;10206;48.012;10.030;2023-03-16T14:48:14;94710.63;;;14.74
31528;BMP280;10206;48.012;10.030;2023-03-16T14:50:43;94711.94;;;14.73
31528;BMP280;10206;48.012;10.030;2023-03-16T14:53:09;94711.34;;;14.74
31528;BMP280;10206;48.012;10.030;2023-03-16T14:55:36;94709.69;;;14.93
31528;BMP280;10206;48.012;10.030;2023-03-16T14:58:02;94709.31;;;14.75
31528;BMP280;10206;48.012;10.030;2023-03-16T15:00:29;94711.84;;;14.94
31528;BMP280;10206;48.012;10.030;2023-03-16T15:03:02;94705.00;;;14.95
31528;BMP280;10206;48.012;10.030;2023-03-16T15:05:36;94706.06;;;14.90
31528;BMP280;10206;48.012;10.030;2023-03-16T15:08:03;94703.88;;;14.42
31528;BMP280;10206;48.012;10.030;2023-03-16T15:10:31;94698.56;;;14.79
31528;BMP280;10206;48.012;10.030;2023-03-16T15:13:00;94698.34;;;14.87
31528;BMP280;10206;48.012;10.030;2023-03-16T15:15:31;94699.16;;;14.89
31528;BMP280;10206;48.012;10.030;2023-03-16T15:17:57;94692.94;;;13.98
31528;BMP280;10206;48.012;10.030;2023-03-16T15:20:29;94687.19;;;14.61
31528;BMP280;10206;48.012;10.030;2023-03-16T15:22:58;94684.38;;;14.48
31528;BMP280;10206;48.012;10.030;2023-03-16T15:25:39;94682.34;;;14.60